createdAt,value
2022-11-13T00:00:14.827Z,6.01
2022-11-13T00:05:18.992Z,5.99
2022-11-13T00:10:23.138Z,5.95
2022-11-13T00:15:27.312Z,5.97
2022-11-13T00:20:31.455Z,5.98
2022-11-13T00:25:35.634Z,6.00
2022-11-13T00:30:39.781Z,5.98
2022-11-13T00:35:44.008Z,5.98
2022-11-13T00:40:48.147Z,5.97
2022-11-13T00:45:52.278Z,5.90
2022-11-13T00:50:56.439Z,5.78
2022-11-13T00:56:00.665Z,5.71
2022-11-13T01:01:04.776Z,5.56
2022-11-13T01:06:08.969Z,5.64
2022-11-13T01:11:13.109Z,5.59
2022-11-13T01:16:17.276Z,5.56
2022-11-13T01:21:21.416Z,5.48
2022-11-13T01:26:25.605Z,5.41
2022-11-13T01:31:29.796Z,5.36
2022-11-13T01:36:33.923Z,5.32
2022-11-13T01:41:38.057Z,5.28
2022-11-13T01:46:42.248Z,5.20
2022-11-13T01:51:46.394Z,5.17
2022-11-13T01:56:50.553Z,5.21
2022-11-13T02:01:54.786Z,5.18
2022-11-13T02:12:03.082Z,5.19
2022-11-13T02:17:07.214Z,5.24
2022-11-13T02:22:11.402Z,5.27
2022-11-13T02:27:15.544Z,5.29
2022-11-13T02:32:19.717Z,5.27
2022-11-13T02:37:23.902Z,5.26
2022-11-13T02:42:28.029Z,5.23
2022-11-13T02:47:32.212Z,5.21
2022-11-13T02:52:36.387Z,5.18
2022-11-13T02:57:40.541Z,5.14
2022-11-13T03:02:44.724Z,5.11
2022-11-13T03:07:48.861Z,5.08
2022-11-13T03:12:53.048Z,4.98
2022-11-13T03:17:57.190Z,4.84
2022-11-13T03:23:01.361Z,4.77
2022-11-13T03:28:05.514Z,4.63
2022-11-13T03:33:09.679Z,4.52
2022-11-13T03:38:13.862Z,4.60
2022-11-13T03:43:18.019Z,4.66
2022-11-13T03:48:22.199Z,4.68
2022-11-13T03:53:26.346Z,4.70
2022-11-13T03:58:30.732Z,4.71
2022-11-13T04:03:34.729Z,4.68
2022-11-13T04:08:36.947Z,4.58
2022-11-13T04:13:41.120Z,4.47
2022-11-13T04:18:45.242Z,4.46
2022-11-13T04:23:49.401Z,4.49
2022-11-13T04:28:53.558Z,4.47
2022-11-13T04:33:57.757Z,4.46
2022-11-13T04:39:01.910Z,4.41
2022-11-13T04:44:06.061Z,4.40
2022-11-13T04:49:10.206Z,4.39
2022-11-13T04:54:14.436Z,4.37
2022-11-13T04:59:18.558Z,4.36
2022-11-13T05:04:22.743Z,4.34
2022-11-13T05:09:26.879Z,4.32
2022-11-13T05:14:31.040Z,4.34
2022-11-13T05:19:35.230Z,4.31
2022-11-13T05:24:39.370Z,4.32
2022-11-13T05:29:43.548Z,4.28
2022-11-13T05:34:47.693Z,4.24
2022-11-13T05:39:51.857Z,4.18
2022-11-13T05:44:56.055Z,4.14
2022-11-13T05:50:00.223Z,4.10
2022-11-13T05:55:04.380Z,4.05
2022-11-13T06:00:08.515Z,4.01
2022-11-13T06:05:12.668Z,3.98
2022-11-13T06:10:16.860Z,3.96
2022-11-13T06:15:21.004Z,3.95
2022-11-13T06:20:25.183Z,3.95
2022-11-13T06:25:29.351Z,4.01
2022-11-13T06:30:33.495Z,3.96
2022-11-13T06:35:37.723Z,3.91
2022-11-13T06:40:41.865Z,3.81
2022-11-13T06:45:45.990Z,3.74
2022-11-13T06:50:50.167Z,3.69
2022-11-13T06:55:54.334Z,3.68
2022-11-13T07:00:58.560Z,3.65
2022-11-13T07:06:02.667Z,3.65
2022-11-13T07:11:06.817Z,3.59
2022-11-13T07:16:16.952Z,3.54
2022-11-13T07:21:15.159Z,3.49
2022-11-13T07:26:19.293Z,3.45
2022-11-13T07:31:23.490Z,3.41
2022-11-13T07:36:27.663Z,3.41
2022-11-13T07:41:31.822Z,3.40
2022-11-13T07:46:35.946Z,3.40
2022-11-13T07:51:40.142Z,3.43
2022-11-13T07:56:44.320Z,3.48
2022-11-13T08:01:48.470Z,3.52
2022-11-13T08:06:52.693Z,3.64
2022-11-13T08:11:56.766Z,3.77
2022-11-13T08:17:00.987Z,3.91
2022-11-13T08:22:05.124Z,4.04
2022-11-13T08:27:09.280Z,4.12
2022-11-13T08:32:13.424Z,4.33
2022-11-13T08:37:17.616Z,4.50
2022-11-13T08:42:21.763Z,4.61
2022-11-13T08:47:29.454Z,4.63
2022-11-13T08:52:30.108Z,4.73
2022-11-13T08:57:34.247Z,4.84
2022-11-13T09:02:38.454Z,5.00
2022-11-13T09:07:42.598Z,5.13
2022-11-13T09:17:50.921Z,5.35
2022-11-13T09:22:55.099Z,5.53
2022-11-13T09:27:59.243Z,5.88
2022-11-13T09:33:03.398Z,6.01
2022-11-13T09:38:11.221Z,6.08
2022-11-13T09:43:09.836Z,6.16
2022-11-13T09:48:13.997Z,6.37
2022-11-13T09:53:18.164Z,6.72
2022-11-13T09:58:22.325Z,6.90
2022-11-13T10:03:54.282Z,7.03
2022-11-13T10:08:29.121Z,7.15
2022-11-13T10:13:32.922Z,7.29
2022-11-13T10:18:37.098Z,7.59
2022-11-13T10:23:41.270Z,8.02
2022-11-13T10:28:51.119Z,8.36
2022-11-13T10:33:49.586Z,8.71
2022-11-13T10:38:53.732Z,8.89
2022-11-13T10:43:57.900Z,9.08
2022-11-13T10:49:02.062Z,9.48
2022-11-13T10:54:06.227Z,9.76
2022-11-13T10:59:10.386Z,10.08
2022-11-13T11:04:14.553Z,10.22
2022-11-13T11:09:18.675Z,10.46
2022-11-13T11:14:22.860Z,10.67
2022-11-13T11:19:27.004Z,10.99
2022-11-13T11:24:31.195Z,11.35
2022-11-13T11:29:35.362Z,11.53
2022-11-13T11:34:39.519Z,11.76
2022-11-13T11:39:43.647Z,11.89
2022-11-13T11:44:47.811Z,12.28
2022-11-13T11:49:52.027Z,12.53
2022-11-13T11:54:56.160Z,12.76
2022-11-13T12:00:00.318Z,12.98
2022-11-13T12:05:04.590Z,13.31
2022-11-13T12:10:08.653Z,13.49
2022-11-13T12:15:12.785Z,13.71
2022-11-13T12:20:16.972Z,13.98
2022-11-13T12:25:21.113Z,14.07
2022-11-13T12:30:25.267Z,14.31
2022-11-13T12:35:29.415Z,14.39
2022-11-13T12:40:33.614Z,14.45
2022-11-13T12:45:37.727Z,14.77
2022-11-13T12:50:41.914Z,14.96
2022-11-13T12:55:46.105Z,15.22
2022-11-13T13:00:50.215Z,15.24
2022-11-13T13:05:54.399Z,15.47
2022-11-13T13:10:58.551Z,15.57
2022-11-13T13:16:02.740Z,15.49
2022-11-13T13:21:06.864Z,15.59
2022-11-13T13:26:11.022Z,15.59
2022-11-13T13:31:15.180Z,15.70
2022-11-13T13:36:19.361Z,15.59
2022-11-13T13:41:23.515Z,15.69
2022-11-13T13:46:27.652Z,15.49
2022-11-13T13:51:31.843Z,15.66
2022-11-13T13:56:35.986Z,15.59
2022-11-13T14:01:40.193Z,15.61
2022-11-13T14:06:44.382Z,15.49
2022-11-13T14:11:48.517Z,15.42
2022-11-13T14:16:52.621Z,15.49
2022-11-13T14:21:56.766Z,15.48
2022-11-13T14:27:00.946Z,15.17
2022-11-13T14:32:05.135Z,15.06
2022-11-13T14:37:09.252Z,15.05
2022-11-13T14:42:13.426Z,15.03
2022-11-13T14:47:17.607Z,14.87
2022-11-13T14:52:21.760Z,14.67
2022-11-13T14:57:25.910Z,14.63
2022-11-13T15:02:30.073Z,14.54
2022-11-13T15:07:34.227Z,14.30
2022-11-13T15:12:38.398Z,14.14
2022-11-13T15:17:42.526Z,14.47
2022-11-13T15:22:46.677Z,14.30
2022-11-13T15:27:50.897Z,13.53
2022-11-13T15:32:55.034Z,12.78
2022-11-13T15:37:57.379Z,12.24
2022-11-13T15:43:01.456Z,11.84
2022-11-13T15:48:05.603Z,11.28
2022-11-13T15:53:09.782Z,10.84
2022-11-13T15:58:13.914Z,10.51
2022-11-13T16:03:18.115Z,10.18
2022-11-13T16:08:22.281Z,9.84
2022-11-13T16:13:26.720Z,9.61
2022-11-13T16:18:30.594Z,9.32
2022-11-13T16:23:34.739Z,9.17
2022-11-13T16:28:59.797Z,9.07
2022-11-13T16:33:43.075Z,8.92
2022-11-13T16:38:47.210Z,8.73
2022-11-13T16:43:51.372Z,8.51
2022-11-13T16:48:55.537Z,8.28
2022-11-13T16:53:59.694Z,8.30
2022-11-13T16:59:03.865Z,8.36
2022-11-13T17:04:08.037Z,8.38
2022-11-13T17:09:12.214Z,8.30
2022-11-13T17:14:16.356Z,8.24
2022-11-13T17:19:20.530Z,8.18
2022-11-13T17:24:24.698Z,8.21
2022-11-13T17:29:28.870Z,8.06
2022-11-13T17:34:33.009Z,8.02
2022-11-13T17:39:37.142Z,7.99
2022-11-13T17:44:41.311Z,7.95
2022-11-13T17:54:49.661Z,7.54
2022-11-13T17:59:53.889Z,7.47
2022-11-13T18:04:57.995Z,7.40
2022-11-13T18:10:02.144Z,7.21
2022-11-13T18:15:06.279Z,7.06
2022-11-13T18:20:10.468Z,7.00
2022-11-13T18:25:14.617Z,6.94
2022-11-13T18:30:18.829Z,6.94
2022-11-13T18:35:22.929Z,6.93
2022-11-13T18:40:27.119Z,6.84
2022-11-13T18:45:31.258Z,6.77
2022-11-13T18:50:35.421Z,6.61
2022-11-13T18:55:39.609Z,6.51
2022-11-13T19:00:43.754Z,6.47
2022-11-13T19:05:47.921Z,6.47
2022-11-13T19:10:52.116Z,6.46
2022-11-13T19:15:56.256Z,6.38
2022-11-13T19:21:00.406Z,6.30
2022-11-13T19:26:04.575Z,6.24
2022-11-13T19:31:08.733Z,6.14
2022-11-13T19:36:12.893Z,6.02
2022-11-13T19:41:17.068Z,5.98
2022-11-13T19:46:21.216Z,5.92
2022-11-13T19:51:25.428Z,5.85
2022-11-13T19:56:29.561Z,5.76
2022-11-13T20:01:33.836Z,5.66
2022-11-13T20:06:38.035Z,5.60
2022-11-13T20:11:42.035Z,5.44
2022-11-13T20:16:46.221Z,5.26
2022-11-13T20:21:50.356Z,5.30
2022-11-13T20:26:54.519Z,5.20
2022-11-13T20:31:58.713Z,5.21
2022-11-13T20:37:02.904Z,5.20
2022-11-13T20:42:07.058Z,5.19
2022-11-13T20:47:11.163Z,5.12
2022-11-13T20:52:15.342Z,5.11
2022-11-13T20:57:19.537Z,5.16
2022-11-13T21:02:23.675Z,5.06
2022-11-13T21:07:26.006Z,5.13
2022-11-13T21:12:30.095Z,4.99
2022-11-13T21:17:34.257Z,5.01
2022-11-13T21:22:38.414Z,4.74
2022-11-13T21:27:42.616Z,4.55
2022-11-13T21:32:46.749Z,4.45
2022-11-13T21:37:50.952Z,4.46
2022-11-13T21:42:55.104Z,4.36
2022-11-13T21:47:59.262Z,4.37
2022-11-13T21:53:03.406Z,4.31
2022-11-13T21:58:07.601Z,4.28
2022-11-13T22:03:11.719Z,4.21
2022-11-13T22:08:15.931Z,4.05
2022-11-13T22:13:20.066Z,3.93
2022-11-13T22:18:24.252Z,3.88
2022-11-13T22:23:28.386Z,3.88
2022-11-13T22:28:32.628Z,3.96
2022-11-13T22:33:36.715Z,3.90
2022-11-13T22:38:40.898Z,3.73
2022-11-13T22:43:45.064Z,3.68
2022-11-13T22:48:49.195Z,3.58
2022-11-13T22:53:53.391Z,3.50
2022-11-13T22:58:57.546Z,3.48
2022-11-13T23:04:01.833Z,3.47
2022-11-13T23:09:05.889Z,3.40
2022-11-13T23:14:10.261Z,3.40
2022-11-13T23:19:14.192Z,3.34
2022-11-13T23:24:18.368Z,3.15
2022-11-13T23:29:22.548Z,3.11
2022-11-13T23:34:53.230Z,3.07
2022-11-13T23:39:30.860Z,3.03
2022-11-13T23:44:35.019Z,2.89
2022-11-13T23:49:39.203Z,2.89
2022-11-13T23:54:43.340Z,2.77
2022-11-13T23:59:47.532Z,2.65
